createdAt,value
2022-08-01T00:00:06.031Z,90.52
2022-08-01T00:02:35.331Z,90.57
2022-08-01T00:05:01.715Z,91.25
2022-08-01T00:07:28.070Z,91.14
2022-08-01T00:09:54.441Z,90.93
2022-08-01T00:12:20.907Z,90.85
2022-08-01T00:14:47.304Z,90.84
2022-08-01T00:17:13.678Z,90.64
2022-08-01T00:19:40.066Z,90.78
2022-08-01T00:22:06.766Z,90.76
2022-08-01T00:24:33.491Z,90.46
2022-08-01T00:26:59.960Z,90.35
2022-08-01T00:30:09.702Z,89.96
2022-08-01T00:32:12.681Z,90.54
2022-08-01T00:34:39.052Z,90.01
2022-08-01T00:37:05.418Z,89.72
2022-08-01T00:39:31.784Z,89.74
2022-08-01T00:41:59.937Z,90.42
2022-08-01T00:44:28.497Z,90.51
2022-08-01T00:46:54.894Z,89.98
2022-08-01T00:49:21.481Z,90.51
2022-08-01T00:51:48.044Z,91.55
2022-08-01T00:56:47.978Z,91.35
2022-08-01T00:59:15.088Z,92.35
2022-08-01T01:01:46.480Z,91.08
2022-08-01T01:04:13.680Z,91.18
2022-08-01T01:07:10.482Z,91.03
2022-08-01T01:10:10.266Z,90.71
2022-08-01T01:13:05.826Z,91.23
2022-08-01T01:15:38.463Z,90.89
2022-08-01T01:18:10.412Z,90.91
2022-08-01T01:20:39.744Z,90.65
2022-08-01T01:23:43.481Z,91.68
2022-08-01T01:26:21.954Z,91.94
2022-08-01T01:29:09.878Z,90.87
2022-08-01T01:32:17.948Z,90.73
2022-08-01T01:34:46.687Z,91.67
2022-08-01T01:37:19.682Z,91.73
2022-08-01T01:39:54.312Z,92.02
2022-08-01T01:42:23.611Z,91.85
2022-08-01T01:44:51.308Z,91.55
2022-08-01T01:47:18.286Z,91.69
2022-08-01T01:49:47.121Z,91.29
2022-08-01T01:52:19.239Z,91.47
2022-08-01T01:54:49.628Z,91.13
2022-08-01T01:57:17.107Z,91.72
2022-08-01T01:59:46.647Z,91.62
2022-08-01T02:02:15.454Z,91.55
2022-08-01T02:04:44.426Z,91.52
2022-08-01T02:07:15.279Z,92.02
2022-08-01T02:09:43.764Z,92.00
2022-08-01T02:12:14.174Z,92.32
2022-08-01T02:14:43.028Z,92.23
2022-08-01T02:17:12.439Z,92.10
2022-08-01T02:19:39.175Z,92.14
2022-08-01T02:22:10.660Z,91.89
2022-08-01T02:25:01.953Z,91.38
2022-08-01T02:27:37.834Z,91.45
2022-08-01T02:30:07.527Z,92.13
2022-08-01T02:32:54.453Z,92.65
2022-08-01T02:35:27.229Z,93.21
2022-08-01T02:37:56.061Z,92.91
2022-08-01T02:40:23.255Z,93.16
2022-08-01T02:42:51.855Z,92.99
2022-08-01T02:45:25.748Z,92.73
2022-08-01T02:47:56.674Z,92.17
2022-08-01T02:50:25.503Z,92.39
2022-08-01T02:52:53.582Z,92.63
2022-08-01T02:55:21.069Z,92.82
2022-08-01T02:57:52.338Z,93.11
2022-08-01T03:00:20.076Z,93.09
2022-08-01T03:02:49.648Z,93.09
2022-08-01T03:05:17.888Z,92.13
2022-08-01T03:07:44.874Z,92.18
2022-08-01T03:10:16.863Z,91.97
2022-08-01T03:12:45.359Z,92.81
2022-08-01T03:15:16.153Z,92.56
2022-08-01T03:17:44.850Z,92.04
2022-08-01T03:20:13.918Z,92.23
2022-08-01T03:22:43.151Z,92.56
2022-08-01T03:25:11.470Z,92.39
2022-08-01T03:27:38.246Z,92.31
2022-08-01T03:30:06.193Z,92.17
2022-08-01T03:32:32.657Z,92.27
2022-08-01T03:34:59.289Z,91.95
2022-08-01T03:37:28.379Z,92.20
2022-08-01T03:40:01.315Z,92.75
2022-08-01T03:42:36.615Z,92.07
2022-08-01T03:45:09.714Z,92.32
2022-08-01T03:47:44.811Z,92.01
2022-08-01T03:50:14.077Z,92.54
2022-08-01T03:52:44.299Z,92.38
2022-08-01T03:55:12.792Z,92.10
2022-08-01T03:57:40.152Z,92.08
2022-08-01T04:00:07.863Z,91.51
2022-08-01T04:02:34.833Z,91.65
2022-08-01T04:05:02.603Z,91.25
2022-08-01T04:07:31.313Z,91.18
2022-08-01T04:09:57.785Z,91.31
2022-08-01T04:12:24.486Z,91.30
2022-08-01T04:14:51.075Z,91.41
2022-08-01T04:17:17.893Z,90.94
2022-08-01T04:19:45.158Z,92.03
2022-08-01T04:22:14.827Z,91.04
2022-08-01T04:24:43.346Z,90.88
2022-08-01T04:27:14.121Z,91.10
2022-08-01T04:29:42.002Z,90.52
2022-08-01T04:32:12.292Z,90.54
2022-08-01T04:34:42.498Z,90.90
2022-08-01T04:37:11.123Z,91.07
2022-08-01T04:39:50.397Z,91.23
2022-08-01T04:42:18.523Z,91.59
2022-08-01T04:44:55.301Z,91.61
2022-08-01T04:47:23.141Z,91.81
2022-08-01T04:49:50.041Z,91.05
2022-08-01T04:52:19.700Z,91.42
2022-08-01T04:54:48.151Z,91.57
2022-08-01T04:57:14.557Z,91.73
2022-08-01T04:59:44.344Z,91.83
2022-08-01T05:02:18.824Z,91.29
2022-08-01T05:04:46.512Z,90.43
2022-08-01T05:07:13.962Z,90.21
2022-08-01T05:09:41.467Z,90.69
2022-08-01T05:12:09.259Z,91.38
2022-08-01T05:14:36.111Z,90.92
2022-08-01T05:17:04.772Z,90.65
2022-08-01T05:19:32.070Z,90.92
2022-08-01T05:22:00.351Z,90.15
2022-08-01T05:24:27.933Z,90.08
2022-08-01T05:26:54.267Z,90.14
2022-08-01T05:29:20.649Z,89.14
2022-08-01T05:31:47.007Z,87.64
2022-08-01T05:34:15.238Z,86.87
2022-08-01T05:36:41.832Z,85.74
2022-08-01T05:39:08.238Z,85.51
2022-08-01T05:41:34.747Z,84.66
2022-08-01T05:44:01.073Z,85.14
2022-08-01T05:46:27.517Z,85.22
2022-08-01T05:48:54.200Z,85.46
2022-08-01T05:51:20.642Z,85.31
2022-08-01T05:53:46.966Z,85.94
2022-08-01T05:56:13.303Z,86.26
2022-08-01T05:58:39.684Z,86.47
2022-08-01T06:01:06.080Z,87.08
2022-08-01T06:03:32.471Z,87.18
2022-08-01T06:05:58.886Z,85.47
2022-08-01T06:08:25.260Z,85.74
2022-08-01T06:10:51.602Z,85.76
2022-08-01T06:13:18.613Z,86.09
2022-08-01T06:15:44.952Z,87.18
2022-08-01T06:18:11.302Z,87.02
2022-08-01T06:20:37.691Z,86.28
2022-08-01T06:23:22.491Z,87.10
2022-08-01T06:25:53.717Z,87.04
2022-08-01T06:28:21.748Z,87.26
2022-08-01T06:30:48.288Z,86.88
2022-08-01T06:33:14.670Z,86.62
2022-08-01T06:35:41.034Z,87.52
2022-08-01T06:38:07.379Z,85.98
2022-08-01T06:40:33.818Z,85.13
2022-08-01T06:43:03.016Z,83.68
2022-08-01T06:45:29.341Z,84.98
2022-08-01T06:47:55.715Z,85.25
2022-08-01T06:50:22.050Z,84.99
2022-08-01T06:52:48.416Z,84.58
2022-08-01T06:55:15.051Z,84.59
2022-08-01T06:57:52.407Z,83.13
2022-08-01T07:00:23.464Z,83.30
2022-08-01T07:02:56.101Z,81.71
2022-08-01T07:05:23.096Z,81.29
2022-08-01T07:07:50.291Z,81.27
2022-08-01T07:10:16.767Z,79.06
2022-08-01T07:12:43.135Z,80.50
2022-08-01T07:15:11.174Z,78.01
2022-08-01T07:17:42.186Z,78.79
2022-08-01T07:20:13.949Z,78.92
2022-08-01T07:22:43.011Z,79.59
2022-08-01T07:25:10.198Z,80.79
2022-08-01T07:27:36.874Z,80.58
2022-08-01T07:30:04.445Z,78.42
2022-08-01T07:32:30.996Z,78.51
2022-08-01T07:34:57.571Z,79.62
2022-08-01T07:37:46.305Z,76.73
2022-08-01T07:40:11.102Z,78.33
2022-08-01T07:42:38.258Z,77.79
2022-08-01T07:45:04.855Z,77.18
2022-08-01T07:47:31.235Z,77.39
2022-08-01T07:50:01.434Z,76.20
2022-08-01T07:52:27.794Z,74.33
2022-08-01T07:54:54.363Z,75.72
2022-08-01T07:57:20.691Z,76.78
2022-08-01T07:59:47.026Z,76.66
2022-08-01T08:02:13.432Z,78.31
2022-08-01T08:04:39.929Z,78.28
2022-08-01T08:07:06.428Z,77.88
2022-08-01T08:09:37.221Z,76.59
2022-08-01T08:12:05.304Z,76.74
2022-08-01T08:14:32.848Z,75.62
2022-08-01T08:16:59.748Z,76.00
2022-08-01T08:19:37.746Z,76.05
2022-08-01T08:22:05.336Z,76.29
2022-08-01T08:24:31.945Z,76.81
2022-08-01T08:27:00.062Z,76.13
2022-08-01T08:29:27.860Z,76.81
2022-08-01T08:31:54.755Z,78.34
2022-08-01T08:34:22.191Z,78.84
2022-08-01T08:36:50.160Z,79.91
2022-08-01T08:39:17.552Z,81.57
2022-08-01T08:41:46.434Z,81.89
2022-08-01T08:44:16.735Z,80.07
2022-08-01T08:46:48.966Z,79.75
2022-08-01T08:49:19.148Z,77.46
2022-08-01T08:51:49.537Z,77.31
2022-08-01T08:54:16.549Z,75.77
2022-08-01T08:56:44.115Z,74.96
2022-08-01T08:59:13.244Z,75.55
2022-08-01T09:01:40.015Z,75.06
2022-08-01T09:04:06.774Z,75.34
2022-08-01T09:06:33.955Z,75.40
2022-08-01T09:09:00.877Z,75.26
2022-08-01T09:11:27.537Z,75.62
2022-08-01T09:14:19.709Z,73.89
2022-08-01T09:16:48.913Z,73.89
2022-08-01T09:19:39.543Z,72.72
2022-08-01T09:22:16.818Z,73.17
2022-08-01T09:24:43.162Z,73.89
2022-08-01T09:27:22.045Z,72.50
2022-08-01T09:30:00.490Z,73.33
2022-08-01T09:32:32.802Z,74.96
2022-08-01T09:35:31.215Z,70.05
2022-08-01T09:38:16.046Z,70.03
2022-08-01T09:40:50.189Z,69.40
2022-08-01T09:43:17.242Z,69.63
2022-08-01T09:45:45.694Z,68.31
2022-08-01T09:48:15.758Z,70.10
2022-08-01T09:50:44.251Z,67.42
2022-08-01T09:53:11.664Z,69.11
2022-08-01T09:56:09.761Z,67.97
2022-08-01T09:58:56.185Z,66.52
2022-08-01T10:01:25.766Z,69.51
2022-08-01T10:04:15.486Z,70.15
2022-08-01T10:06:45.715Z,65.47
2022-08-01T10:09:14.439Z,67.28
2022-08-01T10:11:43.376Z,66.57
2022-08-01T10:14:11.481Z,63.04
2022-08-01T10:16:38.311Z,65.40
2022-08-01T10:19:07.300Z,67.33
2022-08-01T10:21:56.555Z,67.05
2022-08-01T10:24:27.334Z,65.09
2022-08-01T10:26:57.618Z,64.78
2022-08-01T10:29:59.269Z,65.57
2022-08-01T10:32:12.509Z,66.00
2022-08-01T10:34:39.266Z,62.22
2022-08-01T10:37:11.604Z,63.58
2022-08-01T10:39:40.778Z,62.73
2022-08-01T10:42:15.590Z,63.88
2022-08-01T10:44:43.192Z,65.67
2022-08-01T10:47:22.992Z,67.05
2022-08-01T10:50:21.768Z,67.48
2022-08-01T10:53:31.552Z,66.57
2022-08-01T10:56:09.620Z,65.54
2022-08-01T10:58:44.107Z,65.00
2022-08-01T11:01:20.039Z,64.29
2022-08-01T11:04:01.292Z,64.96
2022-08-01T11:06:34.136Z,65.59
2022-08-01T11:09:16.256Z,66.21
2022-08-01T11:12:24.887Z,67.31
2022-08-01T11:15:00.459Z,65.58
2022-08-01T11:17:43.339Z,66.82
2022-08-01T11:20:13.901Z,67.21
2022-08-01T11:22:58.503Z,66.20
2022-08-01T11:25:58.366Z,65.45
2022-08-01T11:28:28.491Z,64.06
2022-08-01T11:31:15.629Z,62.89
2022-08-01T11:33:42.135Z,62.55
2022-08-01T11:36:11.539Z,63.57
2022-08-01T11:38:50.386Z,64.60
2022-08-01T11:41:38.184Z,62.80
2022-08-01T11:44:12.116Z,64.80
2022-08-01T11:46:59.658Z,64.86
2022-08-01T11:49:38.785Z,64.87
2022-08-01T11:52:12.779Z,64.95
2022-08-01T11:54:42.487Z,63.10
2022-08-01T11:57:15.010Z,62.68
2022-08-01T12:00:03.279Z,63.85
2022-08-01T12:02:33.439Z,61.50
2022-08-01T12:05:03.173Z,61.47
2022-08-01T12:07:32.891Z,61.16
2022-08-01T12:10:08.337Z,60.39
2022-08-01T12:12:37.598Z,60.87
2022-08-01T12:15:09.964Z,63.27
2022-08-01T12:17:37.946Z,62.31
2022-08-01T12:20:09.799Z,61.34
2022-08-01T12:22:36.547Z,62.21
2022-08-01T12:25:11.053Z,63.93
2022-08-01T12:27:38.770Z,65.22
2022-08-01T12:30:12.256Z,65.32
2022-08-01T12:32:40.682Z,66.07
2022-08-01T12:35:18.488Z,64.69
2022-08-01T12:37:49.491Z,64.83
2022-08-01T12:40:26.739Z,65.22
2022-08-01T12:42:55.148Z,65.20
2022-08-01T12:45:27.439Z,63.92
2022-08-01T12:47:54.903Z,65.43
2022-08-01T12:50:23.422Z,64.68
2022-08-01T12:52:51.329Z,63.60
2022-08-01T12:55:22.474Z,62.40
2022-08-01T12:57:51.529Z,62.87
2022-08-01T13:00:24.823Z,62.93
2022-08-01T13:03:02.306Z,62.93
2022-08-01T13:05:28.752Z,63.54
2022-08-01T13:07:55.566Z,60.29
2022-08-01T13:10:30.258Z,59.85
2022-08-01T13:12:58.890Z,61.67
2022-08-01T13:15:31.112Z,60.40
2022-08-01T13:17:57.515Z,59.55
2022-08-01T13:20:33.084Z,62.77
2022-08-01T13:23:15.072Z,58.26
2022-08-01T13:25:53.058Z,58.63
2022-08-01T13:28:26.941Z,58.74
2022-08-01T13:31:06.237Z,56.60
2022-08-01T13:33:45.081Z,57.56
2022-08-01T13:36:18.577Z,58.46
2022-08-01T13:38:55.472Z,58.78
2022-08-01T13:41:21.823Z,58.18
2022-08-01T13:43:58.717Z,57.04
2022-08-01T13:46:25.840Z,57.82
2022-08-01T13:48:56.004Z,54.95
2022-08-01T13:51:22.748Z,58.61
2022-08-01T13:53:49.176Z,55.61
2022-08-01T13:56:15.506Z,55.47
2022-08-01T13:58:41.854Z,55.22
2022-08-01T14:01:08.272Z,54.63
2022-08-01T14:03:34.659Z,55.17
2022-08-01T14:06:01.710Z,55.44
2022-08-01T14:08:28.093Z,54.35
2022-08-01T14:10:54.564Z,54.18
2022-08-01T14:13:20.889Z,54.70
2022-08-01T14:15:50.282Z,53.93
2022-08-01T14:18:17.044Z,55.16
2022-08-01T14:20:44.547Z,56.70
2022-08-01T14:23:11.546Z,56.67
2022-08-01T14:26:01.639Z,57.25
2022-08-01T14:28:25.735Z,58.01
2022-08-01T14:30:52.079Z,57.68
2022-08-01T14:33:18.405Z,57.54
2022-08-01T14:36:06.154Z,56.91
2022-08-01T14:38:32.493Z,56.52
2022-08-01T14:41:01.131Z,55.80
2022-08-01T14:43:32.839Z,54.14
2022-08-01T14:46:00.065Z,54.27
2022-08-01T14:48:26.472Z,52.71
2022-08-01T14:50:53.165Z,53.75
2022-08-01T14:53:19.599Z,54.12
2022-08-01T14:55:46.028Z,54.88
2022-08-01T14:58:12.590Z,55.01
2022-08-01T15:00:38.949Z,56.48
2022-08-01T15:03:05.291Z,56.21
2022-08-01T15:05:31.646Z,55.38
2022-08-01T15:07:57.986Z,54.83
2022-08-01T15:10:24.326Z,57.19
2022-08-01T15:12:50.955Z,58.14
2022-08-01T15:15:17.466Z,57.81
2022-08-01T15:17:43.816Z,56.67
2022-08-01T15:20:10.419Z,58.75
2022-08-01T15:22:36.768Z,58.82
2022-08-01T15:25:03.875Z,58.12
2022-08-01T15:27:30.250Z,58.93
2022-08-01T15:29:57.018Z,59.51
2022-08-01T15:32:24.234Z,57.84
2022-08-01T15:34:50.602Z,58.11
2022-08-01T15:37:17.315Z,58.07
2022-08-01T15:39:43.727Z,57.77
2022-08-01T15:42:12.974Z,60.01
2022-08-01T15:44:45.716Z,57.62
2022-08-01T15:47:12.159Z,57.14
2022-08-01T15:49:39.196Z,58.09
2022-08-01T15:52:07.359Z,56.17
2022-08-01T15:54:48.032Z,57.32
2022-08-01T15:57:14.366Z,56.88
2022-08-01T15:59:41.956Z,57.11
2022-08-01T16:02:08.865Z,56.01
2022-08-01T16:04:35.456Z,54.99
2022-08-01T16:07:06.746Z,54.79
2022-08-01T16:09:33.164Z,54.38
2022-08-01T16:11:59.612Z,55.35
2022-08-01T16:14:26.147Z,55.23
2022-08-01T16:16:54.835Z,56.71
2022-08-01T16:19:21.274Z,55.75
2022-08-01T16:21:48.541Z,57.29
2022-08-01T16:24:14.947Z,56.97
2022-08-01T16:26:41.342Z,57.08
2022-08-01T16:29:07.715Z,55.72
2022-08-01T16:31:43.269Z,56.28
2022-08-01T16:34:22.313Z,55.88
2022-08-01T16:36:50.123Z,54.89
2022-08-01T16:39:21.006Z,54.81
2022-08-01T16:41:49.712Z,56.57
2022-08-01T16:44:33.938Z,54.96
2022-08-01T16:47:02.223Z,57.67
2022-08-01T16:49:28.699Z,57.98
2022-08-01T16:51:55.133Z,57.64
2022-08-01T16:54:25.545Z,56.50
2022-08-01T16:56:52.855Z,56.70
2022-08-01T16:59:19.201Z,56.46
2022-08-01T17:01:58.143Z,57.29
2022-08-01T17:04:29.398Z,56.83
2022-08-01T17:06:56.577Z,55.19
2022-08-01T17:09:23.001Z,52.75
2022-08-01T17:11:49.354Z,53.13
2022-08-01T17:14:15.754Z,53.96
2022-08-01T17:16:42.282Z,54.79
2022-08-01T17:19:08.798Z,54.32
2022-08-01T17:21:36.336Z,53.12
2022-08-01T17:24:04.881Z,54.79
2022-08-01T17:26:31.328Z,54.49
2022-08-01T17:28:57.799Z,54.76
2022-08-01T17:31:24.194Z,55.56
2022-08-01T17:33:54.505Z,54.28
2022-08-01T17:36:21.453Z,55.14
2022-08-01T17:38:47.804Z,53.61
2022-08-01T17:41:14.146Z,54.92
2022-08-01T17:43:40.485Z,55.03
2022-08-01T17:46:06.884Z,55.71
2022-08-01T17:48:33.230Z,57.11
2022-08-01T17:50:59.599Z,56.23
2022-08-01T17:53:25.950Z,56.17
2022-08-01T17:55:56.352Z,56.66
2022-08-01T17:58:33.725Z,55.72
2022-08-01T18:01:11.854Z,57.48
2022-08-01T18:03:40.916Z,57.39
2022-08-01T18:06:08.821Z,57.74
2022-08-01T18:08:35.253Z,58.04
2022-08-01T18:11:01.679Z,58.83
2022-08-01T18:13:28.072Z,58.07
2022-08-01T18:15:55.806Z,58.81
2022-08-01T18:18:33.688Z,58.87
2022-08-01T18:21:06.484Z,58.45
2022-08-01T18:23:33.626Z,59.05
2022-08-01T18:26:00.844Z,57.90
2022-08-01T18:28:32.860Z,58.30
2022-08-01T18:31:03.576Z,58.52
2022-08-01T18:33:30.032Z,58.79
2022-08-01T18:36:01.893Z,58.54
2022-08-01T18:38:35.032Z,59.20
2022-08-01T18:41:01.687Z,59.74
2022-08-01T18:43:28.222Z,59.60
2022-08-01T18:45:54.891Z,60.23
2022-08-01T18:48:21.280Z,60.67
2022-08-01T18:50:47.662Z,60.61
2022-08-01T18:53:14.059Z,60.46
2022-08-01T18:55:40.448Z,60.89
2022-08-01T18:58:06.827Z,60.69
2022-08-01T19:00:33.207Z,60.37
2022-08-01T19:02:59.543Z,60.47
2022-08-01T19:05:25.932Z,60.47
2022-08-01T19:08:06.360Z,60.47
2022-08-01T19:10:38.825Z,61.18
2022-08-01T19:13:05.760Z,60.76
2022-08-01T19:15:32.303Z,61.01
2022-08-01T19:17:58.707Z,61.55
2022-08-01T19:20:25.197Z,61.76
2022-08-01T19:22:51.590Z,61.04
2022-08-01T19:25:18.039Z,61.78
2022-08-01T19:27:47.466Z,61.18
2022-08-01T19:30:14.689Z,61.81
2022-08-01T19:32:43.359Z,61.78
2022-08-01T19:35:11.948Z,61.42
2022-08-01T19:37:39.824Z,61.91
2022-08-01T19:40:06.761Z,62.34
2022-08-01T19:42:33.108Z,61.33
2022-08-01T19:44:59.658Z,61.19
2022-08-01T19:47:26.035Z,61.44
2022-08-01T19:50:12.367Z,61.47
2022-08-01T19:52:41.274Z,62.16
2022-08-01T19:55:08.013Z,61.71
2022-08-01T19:57:45.645Z,62.28
2022-08-01T20:00:28.072Z,61.33
2022-08-01T20:02:56.503Z,62.01
2022-08-01T20:05:26.226Z,62.31
2022-08-01T20:07:53.315Z,62.22
2022-08-01T20:10:20.711Z,61.64
2022-08-01T20:12:47.611Z,61.53
2022-08-01T20:15:14.266Z,61.87
2022-08-01T20:17:40.996Z,62.25
2022-08-01T20:20:09.142Z,62.54
2022-08-01T20:22:36.248Z,62.81
2022-08-01T20:25:03.378Z,62.73
2022-08-01T20:27:31.625Z,63.12
2022-08-01T20:30:00.574Z,63.93
2022-08-01T20:32:32.622Z,64.41
2022-08-01T20:35:00.823Z,64.77
2022-08-01T20:38:03.862Z,66.51
2022-08-01T20:40:13.838Z,67.38
2022-08-01T20:42:41.306Z,67.45
2022-08-01T20:45:07.911Z,66.75
2022-08-01T20:47:34.415Z,66.60
2022-08-01T20:50:01.051Z,68.06
2022-08-01T20:52:27.402Z,66.61
2022-08-01T20:54:55.583Z,65.96
2022-08-01T20:57:23.345Z,66.22
2022-08-01T21:00:02.827Z,66.51
2022-08-01T21:02:44.389Z,66.91
2022-08-01T21:05:11.891Z,67.28
2022-08-01T21:07:53.398Z,67.38
2022-08-01T21:10:22.153Z,67.74
2022-08-01T21:12:54.063Z,68.21
2022-08-01T21:15:39.388Z,68.32
2022-08-01T21:18:36.206Z,68.31
2022-08-01T21:21:07.912Z,68.41
2022-08-01T21:23:44.082Z,68.27
2022-08-01T21:26:12.461Z,68.97
2022-08-01T21:28:40.740Z,69.10
2022-08-01T21:31:21.972Z,69.46
2022-08-01T21:34:00.742Z,70.30
2022-08-01T21:36:30.464Z,70.13
2022-08-01T21:38:58.484Z,70.15
2022-08-01T21:42:03.512Z,70.55
2022-08-01T21:44:13.875Z,71.26
2022-08-01T21:46:40.392Z,71.81
2022-08-01T21:49:07.310Z,71.94
2022-08-01T21:51:47.603Z,71.94
2022-08-01T21:54:29.010Z,72.51
2022-08-01T21:57:06.243Z,72.48
2022-08-01T21:59:45.747Z,72.75
2022-08-01T22:02:20.784Z,72.89
2022-08-01T22:05:06.419Z,72.94
2022-08-01T22:07:47.659Z,73.12
2022-08-01T22:10:17.005Z,73.32
2022-08-01T22:12:44.470Z,73.32
2022-08-01T22:15:12.505Z,73.40
2022-08-01T22:17:40.141Z,73.32
2022-08-01T22:20:08.211Z,73.31
2022-08-01T22:22:51.755Z,73.03
2022-08-01T22:25:20.050Z,73.64
2022-08-01T22:28:06.481Z,73.43
2022-08-01T22:30:39.763Z,73.40
2022-08-01T22:33:16.697Z,74.32
2022-08-01T22:35:48.938Z,74.32
2022-08-01T22:38:18.540Z,73.59
2022-08-01T22:40:49.501Z,73.50
2022-08-01T22:43:33.956Z,73.49
2022-08-01T22:46:23.815Z,73.76
2022-08-01T22:49:00.686Z,73.50
2022-08-01T22:51:38.111Z,73.57
2022-08-01T22:54:07.169Z,74.09
2022-08-01T22:56:41.401Z,74.23
2022-08-01T22:59:17.174Z,74.62
2022-08-01T23:01:47.782Z,75.62
2022-08-01T23:04:33.440Z,75.09
2022-08-01T23:07:04.904Z,75.37
2022-08-01T23:09:52.963Z,75.30
2022-08-01T23:12:22.722Z,74.65
2022-08-01T23:14:52.459Z,75.33
2022-08-01T23:17:27.470Z,74.83
2022-08-01T23:20:00.457Z,74.97
2022-08-01T23:22:30.262Z,74.86
2022-08-01T23:25:04.246Z,74.92
2022-08-01T23:27:57.819Z,74.59
2022-08-01T23:30:25.896Z,73.68
2022-08-01T23:32:52.584Z,73.44
2022-08-01T23:35:19.343Z,73.51
2022-08-01T23:37:45.885Z,73.78
2022-08-01T23:40:12.575Z,73.76
2022-08-01T23:42:38.974Z,73.96
2022-08-01T23:45:06.722Z,73.81
2022-08-01T23:47:33.205Z,73.82
2022-08-01T23:49:59.638Z,74.54
2022-08-01T23:52:30.971Z,74.72
2022-08-01T23:54:59.457Z,74.50
2022-08-01T23:57:30.008Z,74.38
2022-08-01T23:59:56.367Z,73.99
